Doaktown, Canada
Current Conditions -  °F | °C
As of 1:00 PM on Tuesday 21 Oct 2014 (Local Time) from CYFC Reporting Station
Few Clouds Few Clouds  
Wind Chill: 46°   Ceiling: Unl
Heat Index: 48°   Visibility: 9mi
Dew Point: 32°   Wind: 5mph
Humidity: 54%   Direction: 170°S
Pressure: 30.14"   Gusts: NA
Location:  46.55°N, 66.12°W
Report Text: CYFC 211600Z AUTO 17004KT 080V190 9SM FEW150 09/00 A3014 RMK SLP205
Loading
Personal Weather Stations






























Interactive Weather Map
Tropical Storm Tracking
New forecast layout! Learn more

10-Day Weather Forecast

Advertisements
Track Severe Weather on mobile